sensor_id;sensor_type;location;lat;lon;timestamp;P1;durP1;ratioP1;P2;durP2;ratioP2
54683;SDS011;40582;53.100;6.686;2022-07-21T00:01:08;13.75;;;4.60;;
54683;SDS011;40582;53.100;6.686;2022-07-21T00:03:33;11.55;;;4.47;;
54683;SDS011;40582;53.100;6.686;2022-07-21T00:06:00;10.93;;;4.30;;
54683;SDS011;40582;53.100;6.686;2022-07-21T00:08:26;8.38;;;4.40;;
54683;SDS011;40582;53.100;6.686;2022-07-21T00:10:52;8.73;;;4.68;;
54683;SDS011;40582;53.100;6.686;2022-07-21T00:13:17;10.35;;;4.60;;
54683;SDS011;40582;53.100;6.686;2022-07-21T00:15:43;10.98;;;5.05;;
54683;SDS011;40582;53.100;6.686;2022-07-21T00:18:09;12.45;;;5.00;;
54683;SDS011;40582;53.100;6.686;2022-07-21T00:20:35;12.30;;;5.20;;
54683;SDS011;40582;53.100;6.686;2022-07-21T00:23:01;14.77;;;4.68;;
54683;SDS011;40582;53.100;6.686;2022-07-21T00:25:27;10.43;;;4.68;;
54683;SDS011;40582;53.100;6.686;2022-07-21T00:27:52;12.07;;;5.47;;
54683;SDS011;40582;53.100;6.686;2022-07-21T00:30:18;13.32;;;4.88;;
54683;SDS011;40582;53.100;6.686;2022-07-21T00:32:44;11.57;;;5.32;;
54683;SDS011;40582;53.100;6.686;2022-07-21T00:35:10;14.63;;;5.05;;
54683;SDS011;40582;53.100;6.686;2022-07-21T00:37:38;13.05;;;4.95;;
54683;SDS011;40582;53.100;6.686;2022-07-21T00:40:04;16.02;;;5.45;;
54683;SDS011;40582;53.100;6.686;2022-07-21T00:42:32;13.55;;;5.40;;
54683;SDS011;40582;53.100;6.686;2022-07-21T00:44:59;63.20;;;7.72;;
54683;SDS011;40582;53.100;6.686;2022-07-21T00:47:27;12.27;;;5.72;;
54683;SDS011;40582;53.100;6.686;2022-07-21T00:49:55;23.58;;;6.43;;
54683;SDS011;40582;53.100;6.686;2022-07-21T00:52:22;24.17;;;6.35;;
54683;SDS011;40582;53.100;6.686;2022-07-21T00:54:48;18.92;;;5.53;;
54683;SDS011;40582;53.100;6.686;2022-07-21T00:57:14;12.80;;;5.53;;
54683;SDS011;40582;53.100;6.686;2022-07-21T00:59:41;12.68;;;6.05;;
54683;SDS011;40582;53.100;6.686;2022-07-21T01:02:08;10.70;;;5.22;;
54683;SDS011;40582;53.100;6.686;2022-07-21T01:04:34;14.63;;;6.30;;
54683;SDS011;40582;53.100;6.686;2022-07-21T01:07:00;19.48;;;6.75;;
54683;SDS011;40582;53.100;6.686;2022-07-21T01:09:27;14.98;;;6.78;;
54683;SDS011;40582;53.100;6.686;2022-07-21T01:11:53;21.00;;;7.20;;
54683;SDS011;40582;53.100;6.686;2022-07-21T01:14:19;14.55;;;6.40;;
54683;SDS011;40582;53.100;6.686;2022-07-21T01:16:45;13.30;;;6.47;;
54683;SDS011;40582;53.100;6.686;2022-07-21T01:19:10;11.13;;;6.28;;
54683;SDS011;40582;53.100;6.686;2022-07-21T01:21:38;15.57;;;7.40;;
54683;SDS011;40582;53.100;6.686;2022-07-21T01:24:06;21.27;;;7.15;;
54683;SDS011;40582;53.100;6.686;2022-07-21T01:26:42;15.23;;;6.97;;
54683;SDS011;40582;53.100;6.686;2022-07-21T01:29:12;16.35;;;7.78;;
54683;SDS011;40582;53.100;6.686;2022-07-21T01:31:39;12.70;;;7.20;;
54683;SDS011;40582;53.100;6.686;2022-07-21T01:34:07;12.90;;;7.13;;
54683;SDS011;40582;53.100;6.686;2022-07-21T01:36:33;14.07;;;7.57;;
54683;SDS011;40582;53.100;6.686;2022-07-21T01:38:59;14.70;;;7.40;;
54683;SDS011;40582;53.100;6.686;2022-07-21T01:41:44;16.00;;;7.45;;
54683;SDS011;40582;53.100;6.686;2022-07-21T01:44:10;19.52;;;8.27;;
54683;SDS011;40582;53.100;6.686;2022-07-21T01:46:38;14.32;;;7.82;;
54683;SDS011;40582;53.100;6.686;2022-07-21T01:49:06;17.33;;;7.53;;
54683;SDS011;40582;53.100;6.686;2022-07-21T01:51:32;23.77;;;8.73;;
54683;SDS011;40582;53.100;6.686;2022-07-21T01:53:59;18.80;;;8.25;;
54683;SDS011;40582;53.100;6.686;2022-07-21T01:56:25;22.58;;;8.55;;
54683;SDS011;40582;53.100;6.686;2022-07-21T01:58:52;18.63;;;8.70;;
54683;SDS011;40582;53.100;6.686;2022-07-21T02:01:20;21.33;;;9.13;;
54683;SDS011;40582;53.100;6.686;2022-07-21T02:03:47;18.85;;;8.80;;
54683;SDS011;40582;53.100;6.686;2022-07-21T02:06:13;16.90;;;8.07;;
54683;SDS011;40582;53.100;6.686;2022-07-21T02:08:40;14.68;;;9.00;;
54683;SDS011;40582;53.100;6.686;2022-07-21T02:11:07;19.45;;;8.55;;
54683;SDS011;40582;53.100;6.686;2022-07-21T02:13:33;18.08;;;9.02;;
54683;SDS011;40582;53.100;6.686;2022-07-21T02:15:59;18.08;;;8.98;;
54683;SDS011;40582;53.100;6.686;2022-07-21T02:18:25;16.70;;;8.77;;
54683;SDS011;40582;53.100;6.686;2022-07-21T02:20:50;18.58;;;9.63;;
54683;SDS011;40582;53.100;6.686;2022-07-21T02:23:17;17.10;;;9.00;;
54683;SDS011;40582;53.100;6.686;2022-07-21T02:25:43;19.83;;;9.95;;
54683;SDS011;40582;53.100;6.686;2022-07-21T02:28:09;16.77;;;9.20;;
54683;SDS011;40582;53.100;6.686;2022-07-21T02:30:35;15.60;;;9.18;;
54683;SDS011;40582;53.100;6.686;2022-07-21T02:33:01;17.63;;;9.18;;
54683;SDS011;40582;53.100;6.686;2022-07-21T02:35:27;18.25;;;9.63;;
54683;SDS011;40582;53.100;6.686;2022-07-21T02:37:53;17.67;;;9.75;;
54683;SDS011;40582;53.100;6.686;2022-07-21T02:40:18;18.30;;;10.23;;
54683;SDS011;40582;53.100;6.686;2022-07-21T02:42:45;21.40;;;10.68;;
54683;SDS011;40582;53.100;6.686;2022-07-21T02:45:10;12.23;;;8.93;;
54683;SDS011;40582;53.100;6.686;2022-07-21T02:47:55;15.45;;;9.60;;
54683;SDS011;40582;53.100;6.686;2022-07-21T02:50:23;17.92;;;11.00;;
54683;SDS011;40582;53.100;6.686;2022-07-21T02:52:50;18.33;;;10.10;;
54683;SDS011;40582;53.100;6.686;2022-07-21T02:55:20;16.17;;;10.60;;
54683;SDS011;40582;53.100;6.686;2022-07-21T02:57:46;18.90;;;11.65;;
54683;SDS011;40582;53.100;6.686;2022-07-21T03:00:12;19.70;;;11.43;;
54683;SDS011;40582;53.100;6.686;2022-07-21T03:02:39;15.85;;;10.93;;
54683;SDS011;40582;53.100;6.686;2022-07-21T03:05:04;15.20;;;10.70;;
54683;SDS011;40582;53.100;6.686;2022-07-21T03:07:31;20.65;;;10.90;;
54683;SDS011;40582;53.100;6.686;2022-07-21T03:09:56;14.98;;;9.95;;
54683;SDS011;40582;53.100;6.686;2022-07-21T03:12:22;16.20;;;10.55;;
54683;SDS011;40582;53.100;6.686;2022-07-21T03:14:48;16.67;;;11.07;;
54683;SDS011;40582;53.100;6.686;2022-07-21T03:17:13;16.67;;;11.30;;
54683;SDS011;40582;53.100;6.686;2022-07-21T03:19:39;19.42;;;11.48;;
54683;SDS011;40582;53.100;6.686;2022-07-21T03:22:05;19.23;;;11.57;;
54683;SDS011;40582;53.100;6.686;2022-07-21T03:24:30;18.83;;;11.32;;
54683;SDS011;40582;53.100;6.686;2022-07-21T03:26:56;17.95;;;11.57;;
54683;SDS011;40582;53.100;6.686;2022-07-21T03:29:22;17.40;;;10.82;;
54683;SDS011;40582;53.100;6.686;2022-07-21T03:31:48;15.32;;;10.25;;
54683;SDS011;40582;53.100;6.686;2022-07-21T03:34:14;15.90;;;11.15;;
54683;SDS011;40582;53.100;6.686;2022-07-21T03:36:39;16.83;;;11.85;;
54683;SDS011;40582;53.100;6.686;2022-07-21T03:39:05;15.90;;;11.18;;
54683;SDS011;40582;53.100;6.686;2022-07-21T03:41:31;17.30;;;11.00;;
54683;SDS011;40582;53.100;6.686;2022-07-21T03:43:57;13.70;;;11.07;;
54683;SDS011;40582;53.100;6.686;2022-07-21T03:46:22;15.60;;;11.45;;
54683;SDS011;40582;53.100;6.686;2022-07-21T03:48:48;16.60;;;10.88;;
54683;SDS011;40582;53.100;6.686;2022-07-21T03:51:14;15.73;;;11.32;;
54683;SDS011;40582;53.100;6.686;2022-07-21T03:53:39;15.55;;;11.02;;
54683;SDS011;40582;53.100;6.686;2022-07-21T03:56:05;18.83;;;11.27;;
54683;SDS011;40582;53.100;6.686;2022-07-21T03:58:31;19.90;;;11.68;;
54683;SDS011;40582;53.100;6.686;2022-07-21T04:00:57;15.93;;;10.98;;
54683;SDS011;40582;53.100;6.686;2022-07-21T04:03:23;17.63;;;12.27;;
54683;SDS011;40582;53.100;6.686;2022-07-21T04:05:49;14.73;;;11.18;;
54683;SDS011;40582;53.100;6.686;2022-07-21T04:08:14;17.98;;;12.05;;
54683;SDS011;40582;53.100;6.686;2022-07-21T04:10:41;17.67;;;12.48;;
54683;SDS011;40582;53.100;6.686;2022-07-21T04:13:09;16.70;;;11.73;;
54683;SDS011;40582;53.100;6.686;2022-07-21T04:15:37;17.10;;;11.60;;
54683;SDS011;40582;53.100;6.686;2022-07-21T04:18:03;16.35;;;12.18;;
54683;SDS011;40582;53.100;6.686;2022-07-21T04:20:30;13.48;;;10.82;;
54683;SDS011;40582;53.100;6.686;2022-07-21T04:22:56;17.45;;;11.00;;
54683;SDS011;40582;53.100;6.686;2022-07-21T04:25:22;15.52;;;11.60;;
54683;SDS011;40582;53.100;6.686;2022-07-21T04:27:48;14.70;;;11.73;;
54683;SDS011;40582;53.100;6.686;2022-07-21T04:30:16;16.20;;;11.30;;
54683;SDS011;40582;53.100;6.686;2022-07-21T04:32:46;14.00;;;11.57;;
54683;SDS011;40582;53.100;6.686;2022-07-21T04:35:12;17.65;;;11.55;;
54683;SDS011;40582;53.100;6.686;2022-07-21T04:37:39;16.88;;;11.10;;
54683;SDS011;40582;53.100;6.686;2022-07-21T04:40:05;18.67;;;12.30;;
54683;SDS011;40582;53.100;6.686;2022-07-21T04:42:33;16.02;;;12.35;;
54683;SDS011;40582;53.100;6.686;2022-07-21T04:44:59;14.05;;;12.15;;
54683;SDS011;40582;53.100;6.686;2022-07-21T04:47:25;17.30;;;12.63;;
54683;SDS011;40582;53.100;6.686;2022-07-21T04:49:51;17.42;;;12.50;;
54683;SDS011;40582;53.100;6.686;2022-07-21T04:52:16;18.48;;;15.00;;
54683;SDS011;40582;53.100;6.686;2022-07-21T04:54:42;18.00;;;14.38;;
54683;SDS011;40582;53.100;6.686;2022-07-21T04:57:08;19.23;;;14.98;;
54683;SDS011;40582;53.100;6.686;2022-07-21T04:59:34;20.80;;;16.48;;
54683;SDS011;40582;53.100;6.686;2022-07-21T05:02:01;21.73;;;16.70;;
54683;SDS011;40582;53.100;6.686;2022-07-21T05:04:28;23.52;;;18.45;;
54683;SDS011;40582;53.100;6.686;2022-07-21T05:06:53;21.65;;;18.67;;
54683;SDS011;40582;53.100;6.686;2022-07-21T05:09:19;23.25;;;18.80;;
54683;SDS011;40582;53.100;6.686;2022-07-21T05:11:45;26.70;;;20.30;;
54683;SDS011;40582;53.100;6.686;2022-07-21T05:14:11;25.08;;;20.30;;
54683;SDS011;40582;53.100;6.686;2022-07-21T05:16:37;30.42;;;21.67;;
54683;SDS011;40582;53.100;6.686;2022-07-21T05:19:03;26.58;;;20.83;;
54683;SDS011;40582;53.100;6.686;2022-07-21T05:21:28;27.45;;;21.73;;
54683;SDS011;40582;53.100;6.686;2022-07-21T05:23:54;28.42;;;23.42;;
54683;SDS011;40582;53.100;6.686;2022-07-21T05:26:20;26.02;;;22.50;;
54683;SDS011;40582;53.100;6.686;2022-07-21T05:28:46;32.55;;;24.10;;
54683;SDS011;40582;53.100;6.686;2022-07-21T05:31:12;33.78;;;23.48;;
54683;SDS011;40582;53.100;6.686;2022-07-21T05:33:37;27.80;;;21.70;;
54683;SDS011;40582;53.100;6.686;2022-07-21T05:36:03;29.15;;;22.00;;
54683;SDS011;40582;53.100;6.686;2022-07-21T05:38:30;26.75;;;22.17;;
54683;SDS011;40582;53.100;6.686;2022-07-21T05:40:56;23.90;;;21.27;;
54683;SDS011;40582;53.100;6.686;2022-07-21T05:43:25;29.88;;;22.98;;
54683;SDS011;40582;53.100;6.686;2022-07-21T05:45:51;24.08;;;21.02;;
54683;SDS011;40582;53.100;6.686;2022-07-21T05:48:17;22.80;;;20.02;;
54683;SDS011;40582;53.100;6.686;2022-07-21T05:50:43;25.23;;;21.75;;
54683;SDS011;40582;53.100;6.686;2022-07-21T05:53:08;25.50;;;22.40;;
54683;SDS011;40582;53.100;6.686;2022-07-21T05:55:34;27.02;;;21.92;;
54683;SDS011;40582;53.100;6.686;2022-07-21T05:58:00;26.50;;;22.15;;
54683;SDS011;40582;53.100;6.686;2022-07-21T06:00:25;27.30;;;23.33;;
54683;SDS011;40582;53.100;6.686;2022-07-21T06:02:51;31.45;;;23.50;;
54683;SDS011;40582;53.100;6.686;2022-07-21T06:05:17;27.65;;;21.45;;
54683;SDS011;40582;53.100;6.686;2022-07-21T06:07:43;29.15;;;22.40;;
54683;SDS011;40582;53.100;6.686;2022-07-21T06:10:09;25.80;;;22.65;;
54683;SDS011;40582;53.100;6.686;2022-07-21T06:12:35;25.15;;;21.65;;
54683;SDS011;40582;53.100;6.686;2022-07-21T06:15:00;24.35;;;20.00;;
54683;SDS011;40582;53.100;6.686;2022-07-21T06:17:26;27.48;;;22.02;;
54683;SDS011;40582;53.100;6.686;2022-07-21T06:19:56;24.35;;;20.13;;
54683;SDS011;40582;53.100;6.686;2022-07-21T06:22:23;26.58;;;21.33;;
54683;SDS011;40582;53.100;6.686;2022-07-21T06:24:49;25.42;;;20.08;;
54683;SDS011;40582;53.100;6.686;2022-07-21T06:27:15;23.70;;;19.05;;
54683;SDS011;40582;53.100;6.686;2022-07-21T06:29:41;21.02;;;18.73;;
54683;SDS011;40582;53.100;6.686;2022-07-21T06:32:06;26.50;;;19.95;;
54683;SDS011;40582;53.100;6.686;2022-07-21T06:34:32;25.63;;;19.15;;
54683;SDS011;40582;53.100;6.686;2022-07-21T06:36:58;21.20;;;18.75;;
54683;SDS011;40582;53.100;6.686;2022-07-21T06:39:24;27.58;;;20.33;;
54683;SDS011;40582;53.100;6.686;2022-07-21T06:41:49;23.58;;;19.25;;
54683;SDS011;40582;53.100;6.686;2022-07-21T06:44:15;25.75;;;19.45;;
54683;SDS011;40582;53.100;6.686;2022-07-21T06:46:41;26.98;;;19.52;;
54683;SDS011;40582;53.100;6.686;2022-07-21T06:49:07;27.10;;;21.50;;
54683;SDS011;40582;53.100;6.686;2022-07-21T06:51:32;25.35;;;20.88;;
54683;SDS011;40582;53.100;6.686;2022-07-21T06:53:58;25.92;;;22.02;;
54683;SDS011;40582;53.100;6.686;2022-07-21T06:56:24;29.60;;;22.95;;
54683;SDS011;40582;53.100;6.686;2022-07-21T06:58:49;26.02;;;20.85;;
54683;SDS011;40582;53.100;6.686;2022-07-21T07:01:15;27.13;;;21.13;;
54683;SDS011;40582;53.100;6.686;2022-07-21T07:03:42;28.13;;;21.48;;
54683;SDS011;40582;53.100;6.686;2022-07-21T07:06:08;26.00;;;19.88;;
54683;SDS011;40582;53.100;6.686;2022-07-21T07:08:34;23.90;;;20.25;;
54683;SDS011;40582;53.100;6.686;2022-07-21T07:11:02;26.88;;;21.15;;
54683;SDS011;40582;53.100;6.686;2022-07-21T07:13:28;27.08;;;20.90;;
54683;SDS011;40582;53.100;6.686;2022-07-21T07:15:54;24.17;;;20.60;;
54683;SDS011;40582;53.100;6.686;2022-07-21T07:18:19;25.98;;;20.23;;
54683;SDS011;40582;53.100;6.686;2022-07-21T07:20:47;24.50;;;20.70;;
54683;SDS011;40582;53.100;6.686;2022-07-21T07:23:12;23.42;;;20.05;;
54683;SDS011;40582;53.100;6.686;2022-07-21T07:25:38;24.83;;;20.75;;
54683;SDS011;40582;53.100;6.686;2022-07-21T07:28:04;23.77;;;19.98;;
54683;SDS011;40582;53.100;6.686;2022-07-21T07:30:30;32.80;;;20.75;;
54683;SDS011;40582;53.100;6.686;2022-07-21T07:32:56;22.92;;;19.38;;
54683;SDS011;40582;53.100;6.686;2022-07-21T07:35:22;27.77;;;21.15;;
54683;SDS011;40582;53.100;6.686;2022-07-21T07:37:47;24.48;;;19.58;;
54683;SDS011;40582;53.100;6.686;2022-07-21T07:40:15;25.33;;;21.02;;
54683;SDS011;40582;53.100;6.686;2022-07-21T07:42:43;23.50;;;21.00;;
54683;SDS011;40582;53.100;6.686;2022-07-21T07:45:09;26.30;;;22.30;;
54683;SDS011;40582;53.100;6.686;2022-07-21T07:47:35;27.02;;;21.20;;
54683;SDS011;40582;53.100;6.686;2022-07-21T07:50:02;23.58;;;20.98;;
54683;SDS011;40582;53.100;6.686;2022-07-21T07:52:29;24.77;;;22.17;;
54683;SDS011;40582;53.100;6.686;2022-07-21T07:54:55;24.65;;;21.98;;
54683;SDS011;40582;53.100;6.686;2022-07-21T07:57:20;29.33;;;22.15;;
54683;SDS011;40582;53.100;6.686;2022-07-21T07:59:46;27.17;;;21.92;;
54683;SDS011;40582;53.100;6.686;2022-07-21T08:02:12;32.03;;;23.63;;
54683;SDS011;40582;53.100;6.686;2022-07-21T08:04:37;25.58;;;22.52;;
54683;SDS011;40582;53.100;6.686;2022-07-21T08:07:06;27.33;;;23.52;;
54683;SDS011;40582;53.100;6.686;2022-07-21T08:09:32;26.65;;;23.42;;
54683;SDS011;40582;53.100;6.686;2022-07-21T08:11:57;27.67;;;23.52;;
54683;SDS011;40582;53.100;6.686;2022-07-21T08:14:23;28.02;;;24.52;;
54683;SDS011;40582;53.100;6.686;2022-07-21T08:16:49;30.25;;;23.02;;
54683;SDS011;40582;53.100;6.686;2022-07-21T08:19:15;26.83;;;23.85;;
54683;SDS011;40582;53.100;6.686;2022-07-21T08:21:40;30.30;;;24.77;;
54683;SDS011;40582;53.100;6.686;2022-07-21T08:24:06;28.77;;;24.42;;
54683;SDS011;40582;53.100;6.686;2022-07-21T08:26:33;29.83;;;25.02;;
54683;SDS011;40582;53.100;6.686;2022-07-21T08:28:59;30.75;;;24.30;;
54683;SDS011;40582;53.100;6.686;2022-07-21T08:31:25;28.88;;;24.42;;
54683;SDS011;40582;53.100;6.686;2022-07-21T08:33:52;28.70;;;24.70;;
54683;SDS011;40582;53.100;6.686;2022-07-21T08:36:17;36.05;;;24.88;;
54683;SDS011;40582;53.100;6.686;2022-07-21T08:38:43;29.10;;;24.02;;
54683;SDS011;40582;53.100;6.686;2022-07-21T08:41:09;31.55;;;24.42;;
54683;SDS011;40582;53.100;6.686;2022-07-21T08:43:36;26.70;;;23.83;;
54683;SDS011;40582;53.100;6.686;2022-07-21T08:46:03;32.22;;;23.65;;
54683;SDS011;40582;53.100;6.686;2022-07-21T08:48:29;31.23;;;23.67;;
54683;SDS011;40582;53.100;6.686;2022-07-21T08:50:55;25.83;;;23.02;;
54683;SDS011;40582;53.100;6.686;2022-07-21T08:53:22;26.50;;;21.92;;
54683;SDS011;40582;53.100;6.686;2022-07-21T08:55:49;27.17;;;22.65;;
54683;SDS011;40582;53.100;6.686;2022-07-21T08:58:15;28.05;;;22.08;;
54683;SDS011;40582;53.100;6.686;2022-07-21T09:00:42;27.92;;;20.60;;
54683;SDS011;40582;53.100;6.686;2022-07-21T09:05:43;23.42;;;19.85;;
54683;SDS011;40582;53.100;6.686;2022-07-21T09:08:30;27.90;;;20.27;;
54683;SDS011;40582;53.100;6.686;2022-07-21T09:16:39;22.77;;;18.88;;
54683;SDS011;40582;53.100;6.686;2022-07-21T09:19:05;16.55;;;14.70;;
54683;SDS011;40582;53.100;6.686;2022-07-21T09:21:33;21.90;;;18.05;;
54683;SDS011;40582;53.100;6.686;2022-07-21T09:29:25;20.95;;;18.52;;
54683;SDS011;40582;53.100;6.686;2022-07-21T09:31:51;19.48;;;17.48;;
54683;SDS011;40582;53.100;6.686;2022-07-21T09:34:17;19.33;;;16.83;;
54683;SDS011;40582;53.100;6.686;2022-07-21T09:36:54;20.52;;;15.65;;
54683;SDS011;40582;53.100;6.686;2022-07-21T09:42:19;14.70;;;13.23;;
54683;SDS011;40582;53.100;6.686;2022-07-21T09:44:52;18.38;;;15.73;;
54683;SDS011;40582;53.100;6.686;2022-07-21T09:47:23;17.17;;;15.38;;
54683;SDS011;40582;53.100;6.686;2022-07-21T09:49:50;18.33;;;16.35;;
54683;SDS011;40582;53.100;6.686;2022-07-21T09:55:17;18.13;;;14.52;;
54683;SDS011;40582;53.100;6.686;2022-07-21T09:57:43;17.83;;;14.38;;
54683;SDS011;40582;53.100;6.686;2022-07-21T10:00:12;19.38;;;14.88;;
54683;SDS011;40582;53.100;6.686;2022-07-21T10:02:40;17.92;;;15.30;;
54683;SDS011;40582;53.100;6.686;2022-07-21T10:05:09;19.30;;;16.77;;
54683;SDS011;40582;53.100;6.686;2022-07-21T10:07:37;17.08;;;15.27;;
54683;SDS011;40582;53.100;6.686;2022-07-21T10:10:06;18.25;;;15.50;;
54683;SDS011;40582;53.100;6.686;2022-07-21T10:12:32;22.83;;;18.17;;
54683;SDS011;40582;53.100;6.686;2022-07-21T10:14:59;21.20;;;18.67;;
54683;SDS011;40582;53.100;6.686;2022-07-21T10:17:25;22.42;;;17.05;;
54683;SDS011;40582;53.100;6.686;2022-07-21T10:22:26;27.20;;;20.33;;
54683;SDS011;40582;53.100;6.686;2022-07-21T10:25:02;29.50;;;19.27;;
54683;SDS011;40582;53.100;6.686;2022-07-21T10:27:28;24.40;;;18.65;;
54683;SDS011;40582;53.100;6.686;2022-07-21T10:32:48;26.92;;;21.60;;
54683;SDS011;40582;53.100;6.686;2022-07-21T10:35:28;27.65;;;22.15;;
54683;SDS011;40582;53.100;6.686;2022-07-21T10:37:55;29.17;;;25.10;;
54683;SDS011;40582;53.100;6.686;2022-07-21T10:45:29;30.55;;;24.27;;
54683;SDS011;40582;53.100;6.686;2022-07-21T10:48:08;30.67;;;26.13;;
54683;SDS011;40582;53.100;6.686;2022-07-21T10:51:03;29.03;;;22.23;;
54683;SDS011;40582;53.100;6.686;2022-07-21T10:53:31;26.02;;;21.48;;
54683;SDS011;40582;53.100;6.686;2022-07-21T10:55:57;37.22;;;23.05;;
54683;SDS011;40582;53.100;6.686;2022-07-21T10:58:27;37.38;;;22.30;;
54683;SDS011;40582;53.100;6.686;2022-07-21T11:00:54;27.40;;;22.10;;
54683;SDS011;40582;53.100;6.686;2022-07-21T11:03:25;28.20;;;22.25;;
54683;SDS011;40582;53.100;6.686;2022-07-21T11:11:56;26.17;;;19.17;;
54683;SDS011;40582;53.100;6.686;2022-07-21T11:14:39;34.92;;;18.25;;
54683;SDS011;40582;53.100;6.686;2022-07-21T11:17:09;22.70;;;16.42;;
54683;SDS011;40582;53.100;6.686;2022-07-21T11:19:48;24.20;;;16.67;;
54683;SDS011;40582;53.100;6.686;2022-07-21T11:22:19;23.45;;;17.50;;
54683;SDS011;40582;53.100;6.686;2022-07-21T11:27:15;22.13;;;16.08;;
54683;SDS011;40582;53.100;6.686;2022-07-21T11:29:43;24.65;;;16.45;;
54683;SDS011;40582;53.100;6.686;2022-07-21T11:32:11;21.88;;;16.65;;
54683;SDS011;40582;53.100;6.686;2022-07-21T11:37:05;20.92;;;16.40;;
54683;SDS011;40582;53.100;6.686;2022-07-21T11:39:30;19.30;;;15.73;;
54683;SDS011;40582;53.100;6.686;2022-07-21T11:42:01;20.00;;;14.85;;
54683;SDS011;40582;53.100;6.686;2022-07-21T11:44:28;21.48;;;16.45;;
54683;SDS011;40582;53.100;6.686;2022-07-21T11:46:55;24.40;;;15.48;;
54683;SDS011;40582;53.100;6.686;2022-07-21T11:49:22;19.70;;;16.38;;
54683;SDS011;40582;53.100;6.686;2022-07-21T11:51:49;31.00;;;16.92;;
54683;SDS011;40582;53.100;6.686;2022-07-21T11:54:20;22.15;;;15.82;;
54683;SDS011;40582;53.100;6.686;2022-07-21T11:56:47;26.27;;;16.42;;
54683;SDS011;40582;53.100;6.686;2022-07-21T11:59:14;28.60;;;16.65;;
54683;SDS011;40582;53.100;6.686;2022-07-21T12:04:39;24.30;;;16.55;;
54683;SDS011;40582;53.100;6.686;2022-07-21T12:10:06;21.25;;;16.40;;
54683;SDS011;40582;53.100;6.686;2022-07-21T12:17:43;24.95;;;15.98;;
54683;SDS011;40582;53.100;6.686;2022-07-21T12:20:11;19.13;;;13.57;;
54683;SDS011;40582;53.100;6.686;2022-07-21T12:22:41;20.20;;;13.48;;
54683;SDS011;40582;53.100;6.686;2022-07-21T12:25:11;22.70;;;15.23;;
54683;SDS011;40582;53.100;6.686;2022-07-21T12:27:39;26.45;;;15.85;;
54683;SDS011;40582;53.100;6.686;2022-07-21T12:30:07;22.42;;;13.82;;
54683;SDS011;40582;53.100;6.686;2022-07-21T12:35:32;17.77;;;13.10;;
54683;SDS011;40582;53.100;6.686;2022-07-21T12:38:00;20.40;;;13.35;;
54683;SDS011;40582;53.100;6.686;2022-07-21T12:40:27;17.80;;;14.43;;
54683;SDS011;40582;53.100;6.686;2022-07-21T12:43:10;22.92;;;15.55;;
54683;SDS011;40582;53.100;6.686;2022-07-21T12:45:45;20.42;;;15.38;;
54683;SDS011;40582;53.100;6.686;2022-07-21T12:48:18;26.77;;;15.45;;
54683;SDS011;40582;53.100;6.686;2022-07-21T12:53:25;25.15;;;16.80;;
54683;SDS011;40582;53.100;6.686;2022-07-21T12:55:51;23.63;;;16.05;;
54683;SDS011;40582;53.100;6.686;2022-07-21T12:58:17;23.05;;;17.65;;
54683;SDS011;40582;53.100;6.686;2022-07-21T13:00:42;24.10;;;20.88;;
54683;SDS011;40582;53.100;6.686;2022-07-21T13:03:08;26.35;;;20.85;;
54683;SDS011;40582;53.100;6.686;2022-07-21T13:05:34;35.30;;;23.10;;
54683;SDS011;40582;53.100;6.686;2022-07-21T13:07:59;32.85;;;22.00;;
54683;SDS011;40582;53.100;6.686;2022-07-21T13:10:25;39.15;;;24.83;;
54683;SDS011;40582;53.100;6.686;2022-07-21T13:12:51;54.85;;;30.35;;
54683;SDS011;40582;53.100;6.686;2022-07-21T13:15:17;63.00;;;35.40;;
54683;SDS011;40582;53.100;6.686;2022-07-21T13:17:43;69.88;;;34.75;;
54683;SDS011;40582;53.100;6.686;2022-07-21T13:20:10;37.70;;;24.08;;
54683;SDS011;40582;53.100;6.686;2022-07-21T13:22:36;43.92;;;25.15;;
54683;SDS011;40582;53.100;6.686;2022-07-21T13:25:03;32.10;;;18.63;;
54683;SDS011;40582;53.100;6.686;2022-07-21T13:27:30;144.32;;;25.23;;
54683;SDS011;40582;53.100;6.686;2022-07-21T13:29:56;185.88;;;35.22;;
54683;SDS011;40582;53.100;6.686;2022-07-21T13:32:21;94.57;;;30.25;;
54683;SDS011;40582;53.100;6.686;2022-07-21T13:34:47;46.33;;;27.05;;
54683;SDS011;40582;53.100;6.686;2022-07-21T13:37:13;53.72;;;26.90;;
54683;SDS011;40582;53.100;6.686;2022-07-21T13:39:38;41.05;;;24.98;;
54683;SDS011;40582;53.100;6.686;2022-07-21T13:42:05;32.90;;;23.67;;
54683;SDS011;40582;53.100;6.686;2022-07-21T13:44:31;27.63;;;19.98;;
54683;SDS011;40582;53.100;6.686;2022-07-21T13:46:57;25.27;;;15.77;;
54683;SDS011;40582;53.100;6.686;2022-07-21T13:49:23;17.52;;;12.07;;
54683;SDS011;40582;53.100;6.686;2022-07-21T13:51:49;22.30;;;13.23;;
54683;SDS011;40582;53.100;6.686;2022-07-21T13:54:15;12.40;;;10.40;;
54683;SDS011;40582;53.100;6.686;2022-07-21T13:56:40;11.60;;;8.93;;
54683;SDS011;40582;53.100;6.686;2022-07-21T13:59:06;13.70;;;10.00;;
54683;SDS011;40582;53.100;6.686;2022-07-21T14:01:32;10.88;;;8.60;;
54683;SDS011;40582;53.100;6.686;2022-07-21T14:03:58;10.57;;;8.75;;
54683;SDS011;40582;53.100;6.686;2022-07-21T14:06:25;8.95;;;7.78;;
54683;SDS011;40582;53.100;6.686;2022-07-21T14:08:51;9.13;;;8.20;;
54683;SDS011;40582;53.100;6.686;2022-07-21T14:11:16;8.70;;;7.80;;
54683;SDS011;40582;53.100;6.686;2022-07-21T14:13:43;7.65;;;6.85;;
54683;SDS011;40582;53.100;6.686;2022-07-21T14:16:09;10.70;;;7.00;;
54683;SDS011;40582;53.100;6.686;2022-07-21T14:18:35;7.20;;;5.82;;
54683;SDS011;40582;53.100;6.686;2022-07-21T14:21:01;8.07;;;5.40;;
54683;SDS011;40582;53.100;6.686;2022-07-21T14:23:27;6.47;;;5.75;;
54683;SDS011;40582;53.100;6.686;2022-07-21T14:25:53;6.78;;;5.70;;
54683;SDS011;40582;53.100;6.686;2022-07-21T14:28:19;7.28;;;6.10;;
54683;SDS011;40582;53.100;6.686;2022-07-21T14:30:45;7.18;;;6.32;;
54683;SDS011;40582;53.100;6.686;2022-07-21T14:33:11;6.68;;;6.03;;
54683;SDS011;40582;53.100;6.686;2022-07-21T14:35:37;5.82;;;5.22;;
54683;SDS011;40582;53.100;6.686;2022-07-21T14:38:03;7.22;;;6.03;;
54683;SDS011;40582;53.100;6.686;2022-07-21T14:40:29;8.70;;;7.05;;
54683;SDS011;40582;53.100;6.686;2022-07-21T14:42:54;8.10;;;6.95;;
54683;SDS011;40582;53.100;6.686;2022-07-21T14:45:21;8.10;;;7.13;;
54683;SDS011;40582;53.100;6.686;2022-07-21T14:47:51;12.82;;;8.07;;
54683;SDS011;40582;53.100;6.686;2022-07-21T14:50:20;10.40;;;7.90;;
54683;SDS011;40582;53.100;6.686;2022-07-21T14:52:47;12.57;;;8.50;;
54683;SDS011;40582;53.100;6.686;2022-07-21T14:55:13;9.60;;;7.70;;
54683;SDS011;40582;53.100;6.686;2022-07-21T14:57:38;10.55;;;7.45;;
54683;SDS011;40582;53.100;6.686;2022-07-21T15:00:05;7.07;;;6.35;;
54683;SDS011;40582;53.100;6.686;2022-07-21T15:02:32;10.40;;;7.07;;
54683;SDS011;40582;53.100;6.686;2022-07-21T15:04:58;11.65;;;7.53;;
54683;SDS011;40582;53.100;6.686;2022-07-21T15:07:24;7.75;;;6.50;;
54683;SDS011;40582;53.100;6.686;2022-07-21T15:09:50;9.15;;;6.72;;
54683;SDS011;40582;53.100;6.686;2022-07-21T15:12:15;9.13;;;6.28;;
54683;SDS011;40582;53.100;6.686;2022-07-21T15:14:41;7.07;;;5.97;;
54683;SDS011;40582;53.100;6.686;2022-07-21T15:17:07;9.55;;;6.15;;
54683;SDS011;40582;53.100;6.686;2022-07-21T15:19:33;7.88;;;6.40;;
54683;SDS011;40582;53.100;6.686;2022-07-21T15:21:59;11.55;;;6.72;;